logo
Rechercher aéroport 
image banner adimage banner adimage banner ad
image banner ad

FA0298 - Netcare Blaauwberg Hospital Helistop

Situé à , South Africa

ICAO - , IATA -

Données fournies par Airmate  

Information générale

Coordonnées: S33°48'13" E18°29'2"
Élévation : 46 feet MSL.
 
Voir autres Aéroports à Western Cape

Données opérationnelles

Special qualification required
Heure actuelle UTC:
Heure actuelle locale:
Météo à : - ( 0 km )
METAR: PAKX 180135Z AUTO 23006KT 10SM OVC042 07/00 A3006 RMK AO2
Voir NOTAMs / SUP AIP / TFR affectant cet aéroport [VIEW]
Fréquences de communication: [VIEW]

Pistes:

Coordonnées de l'aéroport

Adresse: South Africa

Vue satellite de FA0298